Terminal Aerodrome Forecast
Issued by NWS Shreveport, LA

Home | Current Version | Previous Version | Text Only | Print | Product List | Glossary On
Versions: 1 2 3 4 5 6 7 8 9 10 11 12
000
FTUS44 KSHV 152340
TAFSHV
TAF
KSHV 152340Z 1600/1624 VRB03KT P6SM FEW180 SCT250
     FM160400 VRB03KT P6SM SCT200 BKN250
     FM161500 17005KT P6SM BKN170 BKN250
     FM161800 18008KT P6SM BKN150 BKN250
     FM162100 18008KT P6SM BKN060=

USA.gov is the U.S. government's official web portal to all federal, state and local government web resources and services.